Архив погоды в Куре

Метеограмма Кур
Воскресенье, 22 Июля
Время местн. Темп Ветер Видим Явления Облачность нижн/средн/верх Атм. давл. Влжн Точка росы ВНГО R Сост. почвы Tg s
Напр Скр Прв ур.ст ур.м изм
10:00 +18.2° Ю 1 - более 50 км - преимущественно облачно 733 758 -0.6 67% +12° 1 км - - - -
07:00 +11.9° С,С-В 1 - 50 км - облачно с прояснениями 734 759 -0.1 100% +11.9° - 0 Влажная (без луж) - -
04:00 - +12.6° С-В 1 - - - - 734 759 +0.1 100% +12.6° - - - - -
01:00 +14.9° С,С-В 1 - 50 км - облачно с прояснениями 734 758 +0.1 100% +14.9° 1 км - - - -
Суббота, 21 Июля
Время местн. Темп Ветер Видим Явления Облачность нижн/средн/верх Атм. давл. Влжн Точка росы ВНГО R Сост. почвы Tg s
Напр Скр Прв ур.ст ур.м изм
22:00 - +15.7° штиль 0 - - - - 734 758 +1 100% +15.7° - - - - -
19:00 +16.7° Ю 1 - 20 км небо без изменений {морось} облачно 733 757 +1.1 98% +16.4° 600 м 0 - - -
16:00 +17° Ю,Ю-З 2 - 20 км слабая непрерывная морось облачно 732 756 +1.1 98% +16.7° 1 км - - - -
13:00 +17.1° С-В 2 - 20 км - облачно 731 755 +0.3 94% +16.2° - - - - -
10:00 +18.9° Ю-З 2 - более 50 км - преимущественно облачно 730 754 -0.2 92% +17.6° 600 м - - - -
07:00 +16.1° штиль 0 - 20 км - облачно 730 755 +0.3 100% +16.1° - 2 Влажная (без луж) - -
04:00 - +16.2° штиль 0 - - - - 730 755 +0.3 100% +16.2° - - - - -
01:00 +17.2° штиль 0 - 500 м туман неба не видно 730 754 0 100% +17.2° более 2.5 км - - - -
Пятница, 20 Июля
Время местн. Темп Ветер Видим Явления Облачность нижн/средн/верх Атм. давл. Влжн Точка росы ВНГО R Сост. почвы Tg s
Напр Скр Прв ур.ст ур.м изм
22:00 - +17.9° штиль 0 - - - - 730 754 +0.9 100% +17.9° - - - - -
19:00 +19.3° С-В 1 - 20 км - облачно 729 753 +0.9 90% +17.7° 1 км 0 - - -
16:00 +20.4° С-В 1 - более 50 км - облачно 728 752 -0.2 83% +17.4° 1 км - - - -
13:00 +20.7° штиль 0 - 20 км - облачно 728 752 +0.3 81% +17.3° 1 км - - - -
10:00 +20.1° С,С-В 2 - 20 км - преимущественно облачно 728 752 +1.1 88% +18° 1 км - - - -
07:00 +18.9° С-В 1 - более 50 км - облачно с прояснениями 727 751 +1.2 100% +18.9° 1 км 6 Влажная (без луж) - -
04:00 - +19.1° С-В 1 - - - - 726 750 +1 100% +19.1° - - - - -
01:00 +19.5° штиль 0 - более 50 км небо без изменений {ливневые осадки} облачно с прояснениями 725 749 +0.4 100% +19.5° 1 км - - - -
Четверг, 19 Июля
Время местн. Темп Ветер Видим Явления Облачность нижн/средн/верх Атм. давл. Влжн Точка росы ВНГО R Сост. почвы Tg s
Напр Скр Прв ур.ст ур.м изм
22:00 - +20.6° Ю,Ю-З 1 - - - - 724 748 +0.5 100% +20.6° - - - - -
19:00 +22.2° Ю,Ю-З 1 - 10 км слабый ливневый дождь облачно 724 748 -0.5 100% +22.2° 600 м 25 - - -
16:00 +22.2° З,Ю-З 1 - 10 км умеренная непрерывная морось {дождь} облачно 724 748 -1 100% +22.2° 600 м - - - -
13:00 +21.4° штиль 0 - 10 км слабый непрерывный дождь {ливневые осадки} облачно 725 749 -1.1 100% +21.4° 600 м - - - -
10:00 +19.7° В,С-В 2 - 10 км слабый непрерывный дождь {туман} облачно 726 750 -1.4 100% +19.7° 600 м - - - -
07:00 +19.4° штиль 0 - 500 м туман неба не видно 728 752 -0.6 100% +19.4° более 2.5 км 10 Влажная (без луж) - -